createdAt,value
2018-08-12T00:00:45.081Z,14.70
2018-08-12T00:03:20.544Z,14.60
2018-08-12T00:05:56.076Z,14.70
2018-08-12T00:08:31.500Z,14.70
2018-08-12T00:11:06.960Z,14.70
2018-08-12T00:13:42.198Z,14.70
2018-08-12T00:16:17.645Z,14.60
2018-08-12T00:18:53.672Z,14.50
2018-08-12T00:21:29.152Z,14.40
2018-08-12T00:24:04.748Z,14.30
2018-08-12T00:26:40.249Z,14.20
2018-08-12T00:29:15.692Z,14.10
2018-08-12T00:31:51.358Z,14.00
2018-08-12T00:34:26.834Z,13.90
2018-08-12T00:37:02.640Z,13.90
2018-08-12T00:39:37.860Z,13.80
2018-08-12T00:42:13.534Z,13.70
2018-08-12T00:44:49.085Z,13.70
2018-08-12T00:47:24.524Z,13.70
2018-08-12T00:49:59.789Z,13.60
2018-08-12T00:52:35.313Z,13.50
2018-08-12T00:55:13.500Z,13.50
2018-08-12T00:57:49.412Z,13.40
2018-08-12T01:00:24.752Z,13.40
2018-08-12T01:03:00.885Z,13.50
2018-08-12T01:05:36.157Z,13.50
2018-08-12T01:08:11.772Z,13.40
2018-08-12T01:10:47.160Z,13.40
2018-08-12T01:13:22.765Z,13.20
2018-08-12T01:15:58.217Z,13.30
2018-08-12T01:18:40.002Z,13.20
2018-08-12T01:21:15.261Z,13.20
2018-08-12T01:23:51.325Z,13.20
2018-08-12T01:26:26.808Z,13.20
2018-08-12T01:29:02.302Z,13.10
2018-08-12T01:31:37.607Z,13.10
2018-08-12T01:34:13.296Z,13.10
2018-08-12T01:36:48.776Z,13.10
2018-08-12T01:39:24.385Z,13.20
2018-08-12T01:41:59.873Z,13.20
2018-08-12T01:44:35.382Z,13.20
2018-08-12T01:47:10.881Z,13.10
2018-08-12T01:49:46.270Z,13.10
2018-08-12T01:52:21.450Z,13.10
2018-08-12T01:54:57.253Z,13.10
2018-08-12T01:57:32.403Z,13.10
2018-08-12T02:00:13.032Z,13.30
2018-08-12T02:02:48.708Z,13.20
2018-08-12T02:05:24.268Z,13.20
2018-08-12T02:07:59.788Z,13.20
2018-08-12T02:10:35.263Z,13.30
2018-08-12T02:13:10.815Z,13.40
2018-08-12T02:15:46.512Z,13.30
2018-08-12T02:18:21.721Z,13.40
2018-08-12T02:20:57.169Z,13.40
2018-08-12T02:23:32.988Z,13.40
2018-08-12T02:26:09.263Z,13.30
2018-08-12T02:28:45.222Z,13.40
2018-08-12T02:31:20.662Z,13.30
2018-08-12T02:33:56.122Z,13.40
2018-08-12T02:36:31.658Z,13.30
2018-08-12T02:39:10.041Z,13.40
2018-08-12T02:41:45.696Z,13.30
2018-08-12T02:44:21.180Z,13.20
2018-08-12T02:46:56.806Z,13.20
2018-08-12T02:49:32.693Z,13.20
2018-08-12T02:52:08.228Z,13.10
2018-08-12T02:54:43.780Z,13.10
2018-08-12T02:57:19.477Z,13.00
2018-08-12T02:59:54.830Z,13.00
2018-08-12T03:02:30.409Z,13.00
2018-08-12T03:05:05.808Z,13.00
2018-08-12T03:07:41.196Z,12.90
2018-08-12T03:10:16.368Z,13.00
2018-08-12T03:12:51.981Z,13.00
2018-08-12T03:15:27.453Z,13.10
2018-08-12T03:18:03.202Z,13.10
2018-08-12T03:20:38.609Z,13.10
2018-08-12T03:23:15.045Z,13.10
2018-08-12T03:25:50.446Z,13.10
2018-08-12T03:28:26.317Z,13.10
2018-08-12T03:31:01.646Z,13.10
2018-08-12T03:33:37.385Z,13.10
2018-08-12T03:36:12.701Z,13.10
2018-08-12T03:38:48.484Z,13.10
2018-08-12T03:41:23.676Z,13.20
2018-08-12T03:43:59.070Z,13.20
2018-08-12T03:46:34.600Z,13.20
2018-08-12T03:49:10.037Z,13.20
2018-08-12T03:51:45.690Z,13.20
2018-08-12T03:54:21.163Z,13.10
2018-08-12T03:56:56.348Z,13.10
2018-08-12T03:59:32.045Z,13.00
2018-08-12T04:02:08.329Z,13.00
2018-08-12T04:04:43.879Z,13.10
2018-08-12T04:07:19.197Z,13.10
2018-08-12T04:09:54.845Z,13.10
2018-08-12T04:12:30.269Z,13.10
2018-08-12T04:15:06.956Z,13.20
2018-08-12T04:17:42.688Z,13.10
2018-08-12T04:20:18.264Z,13.10
2018-08-12T04:22:53.714Z,13.10
2018-08-12T04:25:29.261Z,13.20
2018-08-12T04:28:04.715Z,13.30
2018-08-12T04:30:40.370Z,13.30
2018-08-12T04:33:15.670Z,13.40
2018-08-12T04:35:51.358Z,13.50
2018-08-12T04:38:26.808Z,13.50
2018-08-12T04:41:02.392Z,13.50
2018-08-12T04:43:37.776Z,13.60
2018-08-12T04:46:13.333Z,13.60
2018-08-12T04:48:48.544Z,13.70
2018-08-12T04:51:24.024Z,13.80
2018-08-12T04:53:59.515Z,13.90
2018-08-12T04:56:35.111Z,14.00
2018-08-12T04:59:10.444Z,14.00
2018-08-12T05:01:46.238Z,14.00
2018-08-12T05:04:21.728Z,14.10
2018-08-12T05:06:57.408Z,14.10
2018-08-12T05:09:32.823Z,14.20
2018-08-12T05:12:08.605Z,14.30
2018-08-12T05:14:44.104Z,14.40
2018-08-12T05:17:19.792Z,14.40
2018-08-12T05:19:55.085Z,14.50
2018-08-12T05:22:30.597Z,14.70
2018-08-12T05:25:06.208Z,14.80
2018-08-12T05:27:41.893Z,15.20
2018-08-12T05:30:17.567Z,16.20
2018-08-12T05:32:53.188Z,16.70
2018-08-12T05:35:28.688Z,16.90
2018-08-12T05:38:04.488Z,17.10
2018-08-12T05:40:39.951Z,19.40
2018-08-12T05:43:15.925Z,21.30
2018-08-12T05:45:51.304Z,22.90
2018-08-12T05:48:26.785Z,24.40
2018-08-12T05:51:01.424Z,25.00
2018-08-12T05:53:36.885Z,25.60
2018-08-12T05:56:11.660Z,26.00
2018-08-12T05:58:46.532Z,26.80
2018-08-12T06:01:21.226Z,26.70
2018-08-12T06:03:55.905Z,26.00
2018-08-12T06:06:30.570Z,26.50
2018-08-12T06:09:08.312Z,26.90
2018-08-12T06:11:42.994Z,26.40
2018-08-12T06:14:17.795Z,26.50
2018-08-12T06:16:52.497Z,26.30
2018-08-12T06:19:27.352Z,25.40
2018-08-12T06:22:01.963Z,25.20
2018-08-12T06:24:36.894Z,24.80
2018-08-12T06:27:11.691Z,24.20
2018-08-12T06:29:46.567Z,23.70
2018-08-12T06:32:21.180Z,23.30
2018-08-12T06:34:56.114Z,23.90
2018-08-12T06:37:31.018Z,24.00
2018-08-12T06:40:08.086Z,24.40
2018-08-12T06:42:44.180Z,25.00
2018-08-12T06:45:19.423Z,25.70
2018-08-12T06:47:54.025Z,25.80
2018-08-12T06:50:28.829Z,26.00
2018-08-12T06:53:04.476Z,25.60
2018-08-12T06:55:39.370Z,25.80
2018-08-12T06:58:14.683Z,25.40
2018-08-12T07:00:55.118Z,25.20
2018-08-12T07:03:30.292Z,24.80
2018-08-12T07:06:05.139Z,25.00
2018-08-12T07:08:39.900Z,24.90
2018-08-12T07:11:15.627Z,25.00
2018-08-12T07:13:54.538Z,25.80
2018-08-12T07:16:29.278Z,25.30
2018-08-12T07:19:03.904Z,25.10
2018-08-12T07:21:38.596Z,24.60
2018-08-12T07:24:13.216Z,24.40
2018-08-12T07:26:48.185Z,24.70
2018-08-12T07:29:23.444Z,24.90
2018-08-12T07:31:58.952Z,25.00
2018-08-12T07:34:33.605Z,24.90
2018-08-12T07:37:08.542Z,25.10
2018-08-12T07:39:43.552Z,25.50
2018-08-12T07:42:19.202Z,25.20
2018-08-12T07:44:54.590Z,24.50
2018-08-12T07:47:30.101Z,24.40
2018-08-12T07:50:06.652Z,24.80
2018-08-12T07:52:43.279Z,24.80
2018-08-12T07:55:18.688Z,25.00
2018-08-12T07:57:54.150Z,25.10
2018-08-12T08:00:29.420Z,25.00
2018-08-12T08:03:05.176Z,25.30
2018-08-12T08:05:40.529Z,24.80
2018-08-12T08:08:16.125Z,24.50
2018-08-12T08:10:50.640Z,24.10
2018-08-12T08:13:26.198Z,23.80
2018-08-12T08:16:01.745Z,23.50
2018-08-12T08:18:37.377Z,22.70
2018-08-12T08:21:12.817Z,22.30
2018-08-12T08:23:48.245Z,22.40
2018-08-12T08:26:23.988Z,22.40
2018-08-12T08:28:59.468Z,22.20
2018-08-12T08:31:35.063Z,22.20
2018-08-12T08:34:10.897Z,22.10
2018-08-12T08:36:46.373Z,22.10
2018-08-12T08:39:22.069Z,22.10
2018-08-12T08:41:57.276Z,22.30
2018-08-12T08:44:32.864Z,22.50
2018-08-12T08:47:08.358Z,22.60
2018-08-12T08:49:43.851Z,22.80
2018-08-12T08:52:19.308Z,22.90
2018-08-12T08:54:54.874Z,22.80
2018-08-12T08:57:30.230Z,23.00
2018-08-12T09:00:09.625Z,23.30
2018-08-12T09:02:47.437Z,23.40
2018-08-12T09:05:23.281Z,23.10
2018-08-12T09:07:58.855Z,23.10
2018-08-12T09:10:34.372Z,23.20
2018-08-12T09:13:09.632Z,23.40
2018-08-12T09:15:45.272Z,23.50
2018-08-12T09:18:20.787Z,23.40
2018-08-12T09:20:56.268Z,23.20
2018-08-12T09:23:31.416Z,23.10
2018-08-12T09:26:06.939Z,23.00
2018-08-12T09:28:42.884Z,23.20
2018-08-12T09:31:18.653Z,23.20
2018-08-12T09:33:53.908Z,23.20
2018-08-12T09:36:29.544Z,23.40
2018-08-12T09:39:09.694Z,23.20
2018-08-12T09:41:45.151Z,23.10
2018-08-12T09:44:20.616Z,23.20
2018-08-12T09:46:56.237Z,23.30
2018-08-12T09:49:31.685Z,23.30
2018-08-12T09:52:07.334Z,23.20
2018-08-12T09:54:42.512Z,23.60
2018-08-12T09:57:18.045Z,23.80
2018-08-12T09:59:54.189Z,23.80
2018-08-12T10:02:29.831Z,23.80
2018-08-12T10:05:05.800Z,23.80
2018-08-12T10:07:41.638Z,23.40
2018-08-12T10:10:17.287Z,23.30
2018-08-12T10:12:52.769Z,23.40
2018-08-12T10:15:28.091Z,23.50
2018-08-12T10:18:04.644Z,23.60
2018-08-12T10:20:40.041Z,23.80
2018-08-12T10:23:16.363Z,24.10
2018-08-12T10:25:51.734Z,24.00
2018-08-12T10:28:27.669Z,24.20
2018-08-12T10:31:02.930Z,24.30
2018-08-12T10:33:38.544Z,24.30
2018-08-12T10:36:13.805Z,24.20
2018-08-12T10:38:49.755Z,24.20
2018-08-12T10:41:25.160Z,24.40
2018-08-12T10:44:00.664Z,24.20
2018-08-12T10:46:35.869Z,24.30
2018-08-12T10:49:11.524Z,24.00
2018-08-12T10:51:46.703Z,24.00
2018-08-12T10:54:22.156Z,23.90
2018-08-12T10:56:57.665Z,23.70
2018-08-12T10:59:33.238Z,23.90
2018-08-12T11:02:08.580Z,24.00
2018-08-12T11:04:44.122Z,24.20
2018-08-12T11:07:19.524Z,24.20
2018-08-12T11:09:55.094Z,24.00
2018-08-12T11:12:30.413Z,24.00
2018-08-12T11:15:06.907Z,24.00
2018-08-12T11:17:42.304Z,23.60
2018-08-12T11:20:18.988Z,23.40
2018-08-12T11:22:54.346Z,23.20
2018-08-12T11:25:30.020Z,22.90
2018-08-12T11:28:05.561Z,22.80
2018-08-12T11:30:40.904Z,22.60
2018-08-12T11:33:16.862Z,22.40
2018-08-12T11:35:52.306Z,22.10
2018-08-12T11:38:27.870Z,21.90
2018-08-12T11:41:03.460Z,22.00
2018-08-12T11:43:39.561Z,21.90
2018-08-12T11:46:15.332Z,22.00
2018-08-12T11:48:50.674Z,22.10
2018-08-12T11:51:26.412Z,22.50
2018-08-12T11:54:01.840Z,22.80
2018-08-12T11:56:37.333Z,22.80
2018-08-12T11:59:12.607Z,23.20
2018-08-12T12:01:48.118Z,23.50
2018-08-12T12:04:23.657Z,23.30
2018-08-12T12:06:59.301Z,23.40
2018-08-12T12:09:35.453Z,23.30
2018-08-12T12:12:11.045Z,23.10
2018-08-12T12:14:46.513Z,23.30
2018-08-12T12:17:21.988Z,23.50
2018-08-12T12:19:57.440Z,23.70
2018-08-12T12:22:32.957Z,23.70
2018-08-12T12:25:10.545Z,23.90
2018-08-12T12:27:46.125Z,24.00
2018-08-12T12:30:23.603Z,24.10
2018-08-12T12:32:59.164Z,24.00
2018-08-12T12:35:34.731Z,23.80
2018-08-12T12:38:11.303Z,23.90
2018-08-12T12:40:46.689Z,23.70
2018-08-12T12:43:22.181Z,23.80
2018-08-12T12:45:57.742Z,23.90
2018-08-12T12:48:33.375Z,23.90
2018-08-12T12:51:08.848Z,24.00
2018-08-12T12:53:44.305Z,24.30
2018-08-12T12:56:19.632Z,24.40
2018-08-12T12:58:55.081Z,24.40
2018-08-12T13:01:30.441Z,24.50
2018-08-12T13:04:05.937Z,24.70
2018-08-12T13:06:41.350Z,24.70
2018-08-12T13:09:16.933Z,24.60
2018-08-12T13:11:52.260Z,24.20
2018-08-12T13:14:27.928Z,23.90
2018-08-12T13:17:03.157Z,23.50
2018-08-12T13:19:38.616Z,23.30
2018-08-12T13:22:14.465Z,23.30
2018-08-12T13:24:50.022Z,23.30
2018-08-12T13:27:25.488Z,23.20
2018-08-12T13:30:01.019Z,23.20
2018-08-12T13:32:36.509Z,23.30
2018-08-12T13:35:12.005Z,23.30
2018-08-12T13:37:47.562Z,23.30
2018-08-12T13:40:23.115Z,23.20
2018-08-12T13:42:58.532Z,23.30
2018-08-12T13:45:34.192Z,23.50
2018-08-12T13:48:09.712Z,23.40
2018-08-12T13:50:45.193Z,23.20
2018-08-12T13:53:20.693Z,23.30
2018-08-12T13:55:56.084Z,23.20
2018-08-12T13:58:31.560Z,23.20
2018-08-12T14:01:06.941Z,23.00
2018-08-12T14:03:42.465Z,23.00
2018-08-12T14:06:18.060Z,22.90
2018-08-12T14:08:53.488Z,22.90
2018-08-12T14:11:29.152Z,22.90
2018-08-12T14:14:04.956Z,22.90
2018-08-12T14:16:40.563Z,22.90
2018-08-12T14:19:15.930Z,23.00
2018-08-12T14:21:51.449Z,23.00
2018-08-12T14:24:26.625Z,22.90
2018-08-12T14:27:02.333Z,23.00
2018-08-12T14:29:37.529Z,22.90
2018-08-12T14:32:13.135Z,22.80
2018-08-12T14:34:48.499Z,22.70
2018-08-12T14:37:24.041Z,22.70
2018-08-12T14:39:59.695Z,22.70
2018-08-12T14:42:35.423Z,22.70
2018-08-12T14:45:12.750Z,22.70
2018-08-12T14:47:48.391Z,22.70
2018-08-12T14:50:23.872Z,22.70
2018-08-12T14:52:59.352Z,22.80
2018-08-12T14:55:34.620Z,22.80
2018-08-12T14:58:10.136Z,22.80
2018-08-12T15:00:45.329Z,22.70
2018-08-12T15:03:20.939Z,22.80
2018-08-12T15:05:56.230Z,22.80
2018-08-12T15:08:31.722Z,22.90
2018-08-12T15:11:07.289Z,23.00
2018-08-12T15:13:42.911Z,23.00
2018-08-12T15:16:18.185Z,23.00
2018-08-12T15:18:55.796Z,23.00
2018-08-12T15:21:31.448Z,22.90
2018-08-12T15:24:06.944Z,22.80
2018-08-12T15:26:42.322Z,22.90
2018-08-12T15:29:17.843Z,22.90
2018-08-12T15:31:53.249Z,22.90
2018-08-12T15:34:28.754Z,22.80
2018-08-12T15:37:04.456Z,22.70
2018-08-12T15:39:40.496Z,22.70
2018-08-12T15:42:15.926Z,22.70
2018-08-12T15:44:51.227Z,22.90
2018-08-12T15:47:26.648Z,22.90
2018-08-12T15:50:02.296Z,22.90
2018-08-12T15:52:37.472Z,22.80
2018-08-12T15:55:13.313Z,22.80
2018-08-12T15:57:48.764Z,22.70
2018-08-12T16:00:24.301Z,22.60
2018-08-12T16:02:59.633Z,22.60
2018-08-12T16:05:35.192Z,22.60
2018-08-12T16:08:10.953Z,22.70
2018-08-12T16:10:46.385Z,22.80
2018-08-12T16:13:21.696Z,22.80
2018-08-12T16:15:57.279Z,22.90
2018-08-12T16:18:32.651Z,23.10
2018-08-12T16:21:09.442Z,23.10
2018-08-12T16:23:44.805Z,23.20
2018-08-12T16:26:27.058Z,23.30
2018-08-12T16:29:02.437Z,23.30
2018-08-12T16:31:38.046Z,23.60
2018-08-12T16:34:13.576Z,23.80
2018-08-12T16:36:49.362Z,23.80
2018-08-12T16:39:24.975Z,23.80
2018-08-12T16:42:00.649Z,23.80
2018-08-12T16:44:36.409Z,23.70
2018-08-12T16:47:11.937Z,23.60
2018-08-12T16:49:47.468Z,23.60
2018-08-12T16:52:23.036Z,23.50
2018-08-12T16:54:58.503Z,23.50
2018-08-12T16:57:34.627Z,23.40
2018-08-12T17:00:15.409Z,23.30
2018-08-12T17:02:50.864Z,23.20
2018-08-12T17:05:26.246Z,23.20
2018-08-12T17:08:02.062Z,23.10
2018-08-12T17:10:37.415Z,23.20
2018-08-12T17:13:12.952Z,23.10
2018-08-12T17:15:48.330Z,23.20
2018-08-12T17:18:24.175Z,23.20
2018-08-12T17:20:59.572Z,23.10
2018-08-12T17:23:35.340Z,23.00
2018-08-12T17:26:11.317Z,22.90
2018-08-12T17:28:46.853Z,22.80
2018-08-12T17:31:22.176Z,22.80
2018-08-12T17:33:57.636Z,22.80
2018-08-12T17:36:33.089Z,22.70
2018-08-12T17:39:10.382Z,22.70
2018-08-12T17:41:46.068Z,22.60
2018-08-12T17:44:21.675Z,22.60
2018-08-12T17:46:56.975Z,22.60
2018-08-12T17:49:32.589Z,22.50
2018-08-12T17:52:07.965Z,22.50
2018-08-12T17:54:43.594Z,22.40
2018-08-12T17:57:19.093Z,22.40
2018-08-12T17:59:54.798Z,22.30
2018-08-12T18:02:30.469Z,22.20
2018-08-12T18:05:06.694Z,22.10
2018-08-12T18:07:42.341Z,22.10
2018-08-12T18:10:17.793Z,22.00
2018-08-12T18:12:53.351Z,22.00
2018-08-12T18:15:29.264Z,21.90
2018-08-12T18:18:04.584Z,21.90
2018-08-12T18:20:40.156Z,21.90
2018-08-12T18:23:15.823Z,21.80
2018-08-12T18:25:51.456Z,21.80
2018-08-12T18:28:26.733Z,21.80
2018-08-12T18:31:02.241Z,21.70
2018-08-12T18:33:37.740Z,21.70
2018-08-12T18:36:13.342Z,21.60
2018-08-12T18:38:49.017Z,21.60
2018-08-12T18:41:24.534Z,21.60
2018-08-12T18:43:59.744Z,21.50
2018-08-12T18:46:36.249Z,21.50
2018-08-12T18:49:11.564Z,21.40
2018-08-12T18:51:47.056Z,21.30
2018-08-12T18:54:23.010Z,21.30
2018-08-12T18:56:58.642Z,21.30
2018-08-12T18:59:34.106Z,21.20
2018-08-12T19:02:09.633Z,21.20
2018-08-12T19:04:45.090Z,21.20
2018-08-12T19:07:20.721Z,21.20
2018-08-12T19:09:56.350Z,21.20
2018-08-12T19:12:31.834Z,21.20
2018-08-12T19:15:09.420Z,21.10
2018-08-12T19:17:45.100Z,21.20
2018-08-12T19:20:20.418Z,21.10
2018-08-12T19:23:02.221Z,21.10
2018-08-12T19:25:37.692Z,21.10
2018-08-12T19:28:13.317Z,21.10
2018-08-12T19:30:48.783Z,21.00
2018-08-12T19:33:24.250Z,21.00
2018-08-12T19:35:59.541Z,21.00
2018-08-12T19:38:35.592Z,21.00
2018-08-12T19:41:10.961Z,20.90
2018-08-12T19:43:46.784Z,20.90
2018-08-12T19:46:22.085Z,20.90
2018-08-12T19:48:57.792Z,20.90
2018-08-12T19:51:33.249Z,20.90
2018-08-12T19:54:08.905Z,21.00
2018-08-12T19:56:44.540Z,20.90
2018-08-12T19:59:26.839Z,20.90
2018-08-12T20:02:02.149Z,20.90
2018-08-12T20:04:37.725Z,20.90
2018-08-12T20:07:13.047Z,20.90
2018-08-12T20:09:48.713Z,20.90
2018-08-12T20:12:24.150Z,20.80
2018-08-12T20:14:59.814Z,20.80
2018-08-12T20:17:35.314Z,20.70
2018-08-12T20:20:12.517Z,20.70
2018-08-12T20:22:47.853Z,20.70
2018-08-12T20:25:23.440Z,20.70
2018-08-12T20:27:58.769Z,20.60
2018-08-12T20:30:34.346Z,20.60
2018-08-12T20:33:09.685Z,20.60
2018-08-12T20:35:45.213Z,20.60
2018-08-12T20:38:21.561Z,20.60
2018-08-12T20:40:56.868Z,20.60
2018-08-12T20:43:32.141Z,20.60
2018-08-12T20:46:07.797Z,20.60
2018-08-12T20:48:43.212Z,20.60
2018-08-12T20:51:18.707Z,20.60
2018-08-12T20:53:54.124Z,20.60
2018-08-12T20:56:29.641Z,20.60
2018-08-12T20:59:05.964Z,20.60
2018-08-12T21:01:41.729Z,20.60
2018-08-12T21:04:17.281Z,20.60
2018-08-12T21:06:53.704Z,20.60
2018-08-12T21:09:29.239Z,20.50
2018-08-12T21:12:04.983Z,20.50
2018-08-12T21:14:40.117Z,20.50
2018-08-12T21:17:15.717Z,20.50
2018-08-12T21:19:51.233Z,20.50
2018-08-12T21:22:26.824Z,20.50
2018-08-12T21:25:02.337Z,20.50
2018-08-12T21:27:38.434Z,20.40
2018-08-12T21:30:13.769Z,20.40
2018-08-12T21:32:49.366Z,20.40
2018-08-12T21:35:24.791Z,20.40
2018-08-12T21:38:00.214Z,20.40
2018-08-12T21:40:35.641Z,20.40
2018-08-12T21:43:11.331Z,20.40
2018-08-12T21:45:46.769Z,20.40
2018-08-12T21:48:22.290Z,20.30
2018-08-12T21:50:57.773Z,20.30
2018-08-12T21:53:33.384Z,20.30
2018-08-12T21:56:08.865Z,20.30
2018-08-12T21:58:44.272Z,20.20
2018-08-12T22:01:19.573Z,20.20
2018-08-12T22:03:55.057Z,20.20
2018-08-12T22:06:30.479Z,20.20
2018-08-12T22:09:09.196Z,20.20
2018-08-12T22:11:44.595Z,20.20
2018-08-12T22:14:20.261Z,20.20
2018-08-12T22:16:55.656Z,20.20
2018-08-12T22:19:31.933Z,20.20
2018-08-12T22:22:07.599Z,20.20
2018-08-12T22:24:43.293Z,20.10
2018-08-12T22:27:19.065Z,20.10
2018-08-12T22:29:54.733Z,20.10
2018-08-12T22:32:30.061Z,20.10
2018-08-12T22:35:06.065Z,20.00
2018-08-12T22:37:41.347Z,20.00
2018-08-12T22:40:17.289Z,19.90
2018-08-12T22:42:52.673Z,19.90
2018-08-12T22:45:28.462Z,19.90
2018-08-12T22:48:03.765Z,19.80
2018-08-12T22:50:39.248Z,19.80
2018-08-12T22:53:14.736Z,19.80
2018-08-12T22:55:50.586Z,19.80
2018-08-12T22:58:25.900Z,19.70
2018-08-12T23:01:01.308Z,19.70
2018-08-12T23:03:36.804Z,19.60
2018-08-12T23:06:12.509Z,19.60
2018-08-12T23:08:47.987Z,19.50
2018-08-12T23:11:23.714Z,19.50
2018-08-12T23:13:59.034Z,19.40
2018-08-12T23:16:51.801Z,19.30
2018-08-12T23:19:27.418Z,19.30
2018-08-12T23:22:02.892Z,19.20
2018-08-12T23:24:38.164Z,19.20
2018-08-12T23:27:13.692Z,19.20
2018-08-12T23:29:48.869Z,19.20
2018-08-12T23:32:24.364Z,19.10
2018-08-12T23:34:59.837Z,19.10
2018-08-12T23:37:35.465Z,19.10
2018-08-12T23:40:11.035Z,19.00
2018-08-12T23:42:46.548Z,19.00
2018-08-12T23:45:21.913Z,19.00
2018-08-12T23:47:57.659Z,18.90
2018-08-12T23:50:32.960Z,18.90
2018-08-12T23:53:08.433Z,18.90
2018-08-12T23:55:43.657Z,18.90
2018-08-12T23:58:19.234Z,18.90
